Аэропорт: Домодедово. Москва

ICAO: UUDD

METAR:
2018/05/20 23:00
UUDD 202300Z 02003MPS 8000 NSC 08/06 Q1024 R32L/010095 NOSIG
METAR:
2018/05/20 21:21
TAF UUDD 201957Z 2021/2203 04002MPS 5000 BR SCT020 TX19/2112Z TN06/2102Z 
      TEMPO 2021/2102 0300 FG FEW002 
      BECMG 2103/2105 06007MPS 9999 NSW 
      TEMPO 2107/2115 06008G13MPS 
      BECMG 2117/2119 VRB01MPS